Hai Yang Shi You 708 — BFDL — position and weather

sailwx.info

Track history (hours):
 
Tides and Currents Weather Stations Pressure Air Temp Water Temp Dewpoint Dewpoint Depression Visibility Wind Speed Wind Dir Waves Ship Positions

Hai Yang Shi You 708

Last reported at 2016-Dec-06 17:33 UTC. Time now 2016-Dec-06 18:05 UTC.
Position N 21°03' E 110°38'.

Length 105 m; draft 7 m.

Type: Other ship. MMSI: 413303010.

Date/timePositionNaut miles runAvg speedWind from/ knotsBaromVisibWave heightAir tempDewpointWater temp
2016-Dec-06 17:33N 21°03' E 110°38'8 0.6
2016-Dec-06 05:25N 21°01' E 110°46'5 5.8
2016-Dec-06 04:30N 21°03' E 110°41'8 8.7
2016-Dec-06 03:33N 21°05' E 110°32'8 7.9
2016-Dec-06 02:33N 21°08' E 110°25'2 0.1
2016-Dec-04 18:27N 21°11' E 110°24'0 0.0
2016-Dec-03 23:33N 21°11' E 110°24'0 0.0
2016-Dec-03 08:33N 21°11' E 110°24'0 0.0
2016-Dec-03 07:15N 21°11' E 110°24'0 0.0
2016-Dec-03 05:21N 21°11' E 110°24'0 0.0
2016-Dec-03 04:33N 21°11' E 110°24'0 0.0
2016-Dec-02 09:33N 21°11' E 110°24'0 0.0
2016-Dec-02 01:15N 21°11' E 110°24'0 0.0
2016-Dec-01 05:24N 21°11' E 110°24'0 0.0
2016-Dec-01 04:06N 21°11' E 110°24'0 0.0
2016-Dec-01 03:33N 21°11' E 110°24'0 0.0
2016-Dec-01 02:18N 21°11' E 110°24'0 0.0
2016-Dec-01 00:12N 21°11' E 110°24'0 0.0
2016-Nov-30 22:12N 21°11' E 110°24'0 0.0
2016-Nov-30 21:21N 21°11' E 110°24'0 0.0
2016-Nov-30 19:12N 21°11' E 110°24'0 0.0
2016-Nov-30 18:30N 21°11' E 110°24'0 0.0
2016-Nov-30 17:30N 21°11' E 110°24'0 0.0
2016-Nov-30 16:33N 21°11' E 110°24'0 0.0
2016-Nov-30 15:21N 21°11' E 110°24'0 0.0
2016-Nov-30 14:09N 21°11' E 110°24'0 0.0
2016-Nov-30 13:33N 21°11' E 110°24'0 0.0
2016-Nov-30 09:33N 21°11' E 110°24'0 0.0
2016-Nov-30 08:30N 21°11' E 110°24'0 0.0
2016-Nov-30 07:21N 21°11' E 110°24'0 0.5
2016-Nov-30 06:33N 21°11' E 110°25'4 4.3
2016-Nov-30 05:32N 21°15' E 110°26'0 0.0
2016-Nov-30 04:29N 21°15' E 110°26'0 0.0
2016-Nov-30 03:32N 21°15' E 110°26'0 0.0
2016-Nov-30 02:32N 21°15' E 110°26'0 0.0
2016-Nov-30 01:32N 21°15' E 110°26'0 0.0
2016-Nov-30 00:32N 21°15' E 110°26'0 0.0
2016-Nov-29 23:32N 21°15' E 110°26'0 0.0
2016-Nov-29 22:26N 21°15' E 110°26'0 0.0
2016-Nov-29 21:32N 21°15' E 110°26'0 0.0
2016-Nov-29 20:32N 21°15' E 110°26'0 0.0
2016-Nov-29 19:29N 21°15' E 110°26'0 0.0
2016-Nov-29 18:32N 21°15' E 110°26'0 0.0
2016-Nov-29 17:32N 21°15' E 110°26'0 0.0
2016-Nov-29 16:29N 21°15' E 110°26'0 0.0
2016-Nov-29 15:29N 21°15' E 110°26'0 0.0
2016-Nov-29 14:32N 21°15' E 110°26'0 0.0
2016-Nov-29 13:29N 21°15' E 110°26'0 0.0
2016-Nov-29 12:29N 21°15' E 110°26'0 0.0
2016-Nov-29 11:29N 21°15' E 110°26'0 0.0
2016-Nov-29 10:32N 21°15' E 110°26'0 0.0
2016-Nov-29 09:26N 21°15' E 110°26'0 0.0
2016-Nov-29 08:29N 21°15' E 110°26'0 0.0
2016-Nov-29 07:32N 21°15' E 110°26'0 0.0
2016-Nov-29 06:32N 21°15' E 110°26'0 0.0
2016-Nov-29 05:32N 21°15' E 110°26'0 0.0
2016-Nov-29 04:32N 21°15' E 110°26'0 0.0
2016-Nov-29 03:32N 21°15' E 110°26'0 0.0
2016-Nov-29 02:26N 21°15' E 110°26'0 0.0
2016-Nov-29 01:32N 21°15' E 110°26'0 0.0
2016-Nov-29 00:29N 21°15' E 110°26'0 0.0
2016-Nov-28 23:32N 21°15' E 110°26'0 0.0
2016-Nov-28 22:23N 21°15' E 110°26'0 0.0
2016-Nov-28 21:32N 21°15' E 110°26'0 0.0
2016-Nov-28 20:20N 21°15' E 110°26'0 0.0
2016-Nov-28 19:20N 21°15' E 110°26'0 0.0
2016-Nov-28 18:32N 21°15' E 110°26'0 0.0
2016-Nov-28 17:32N 21°15' E 110°26'0 0.0
2016-Nov-28 16:32N 21°15' E 110°26'0 0.0
2016-Nov-28 15:20N 21°15' E 110°26'0 0.0
2016-Nov-28 14:14N 21°15' E 110°26'0 0.0
2016-Nov-28 13:32N 21°15' E 110°26'0 0.0
2016-Nov-28 12:32N 21°15' E 110°26'0 0.0
2016-Nov-28 11:32N 21°15' E 110°26'0 0.0
2016-Nov-28 10:32N 21°15' E 110°26'0 0.0
2016-Nov-28 09:26N 21°15' E 110°26'0 0.0
2016-Nov-28 08:32N 21°15' E 110°26'0 0.0
2016-Nov-28 07:32N 21°15' E 110°26'0 0.0
2016-Nov-28 06:32N 21°15' E 110°26'0 0.0
2016-Nov-28 05:26N 21°15' E 110°26'0 0.0
2016-Nov-28 04:32N 21°15' E 110°26'0 0.0
2016-Nov-28 03:26N 21°15' E 110°26'0 0.0
2016-Nov-28 02:26N 21°15' E 110°26'0 0.0
2016-Nov-28 01:32N 21°15' E 110°26'0 0.0
2016-Nov-28 00:32N 21°15' E 110°26'0 0.0
2016-Nov-27 23:29N 21°15' E 110°26'0 0.0
2016-Nov-27 22:20N 21°15' E 110°26'0 0.0
2016-Nov-27 21:26N 21°15' E 110°26'0 0.0
2016-Nov-27 20:32N 21°15' E 110°26'0 0.0
2016-Nov-27 19:32N 21°15' E 110°26'0 0.0
2016-Nov-27 18:32N 21°15' E 110°26'0 0.0
2016-Nov-27 17:32N 21°15' E 110°26'0 0.0
2016-Nov-27 16:32N 21°15' E 110°26'0 0.0
2016-Nov-27 15:26N 21°15' E 110°26'0 0.0
2016-Nov-27 14:08N 21°15' E 110°26'0 0.0
2016-Nov-27 13:29N 21°15' E 110°26'0 0.0
2016-Nov-27 12:32N 21°15' E 110°26'0 0.0
2016-Nov-27 11:32N 21°15' E 110°26'0 0.0
2016-Nov-27 10:26N 21°15' E 110°26'0 0.0
2016-Nov-27 09:26N 21°15' E 110°26'0 0.0
2016-Nov-27 08:32N 21°15' E 110°26'0 0.0
2016-Nov-27 07:32N 21°15' E 110°26'0 0.0
2016-Nov-27 06:32N 21°15' E 110°26'0 0.0
2016-Nov-27 05:32N 21°15' E 110°26'0 0.0
2016-Nov-27 04:32N 21°15' E 110°26'0 0.0
2016-Nov-27 03:29N 21°15' E 110°26'0 0.0
2016-Nov-27 02:32N 21°15' E 110°26'0 0.0
2016-Nov-27 01:14N 21°15' E 110°26'0 0.0
2016-Nov-27 00:20N 21°15' E 110°26'0 0.0
2016-Nov-26 23:32N 21°15' E 110°26'0 0.0
2016-Nov-26 22:32N 21°15' E 110°26'0 0.0
2016-Nov-26 21:32N 21°15' E 110°26'0 0.0
2016-Nov-26 20:32N 21°15' E 110°26'0 0.0
2016-Nov-26 19:29N 21°15' E 110°26'0 0.0
2016-Nov-26 18:29N 21°15' E 110°26'  
Track history (hours):
 
Tides and Currents Weather Stations Pressure Air Temp Water Temp Dewpoint Dewpoint Depression Visibility Wind Speed Wind Dir Waves Ship Positions

Hai Yang Shi You 708

Last reported at 2016-Dec-06 17:33 UTC. Time now 2016-Dec-06 18:05 UTC.
Position N 21°03' E 110°38'.

Length 105 m; draft 7 m.

Type: Other ship. MMSI: 413303010.

Date/timePositionNaut miles runAvg speedWind from/ knotsBaromVisibWave heightAir tempDewpointWater temp
2016-Dec-06 17:33N 21°03' E 110°38'8 0.6
2016-Dec-06 05:25N 21°01' E 110°46'5 5.8
2016-Dec-06 04:30N 21°03' E 110°41'8 8.7
2016-Dec-06 03:33N 21°05' E 110°32'8 7.9
2016-Dec-06 02:33N 21°08' E 110°25'2 0.1
2016-Dec-04 18:27N 21°11' E 110°24'0 0.0
2016-Dec-03 23:33N 21°11' E 110°24'0 0.0
2016-Dec-03 08:33N 21°11' E 110°24'0 0.0
2016-Dec-03 07:15N 21°11' E 110°24'0 0.0
2016-Dec-03 05:21N 21°11' E 110°24'0 0.0
2016-Dec-03 04:33N 21°11' E 110°24'0 0.0
2016-Dec-02 09:33N 21°11' E 110°24'0 0.0
2016-Dec-02 01:15N 21°11' E 110°24'0 0.0
2016-Dec-01 05:24N 21°11' E 110°24'0 0.0
2016-Dec-01 04:06N 21°11' E 110°24'0 0.0
2016-Dec-01 03:33N 21°11' E 110°24'0 0.0
2016-Dec-01 02:18N 21°11' E 110°24'0 0.0
2016-Dec-01 00:12N 21°11' E 110°24'0 0.0
2016-Nov-30 22:12N 21°11' E 110°24'0 0.0
2016-Nov-30 21:21N 21°11' E 110°24'0 0.0
2016-Nov-30 19:12N 21°11' E 110°24'0 0.0
2016-Nov-30 18:30N 21°11' E 110°24'0 0.0
2016-Nov-30 17:30N 21°11' E 110°24'0 0.0
2016-Nov-30 16:33N 21°11' E 110°24'0 0.0
2016-Nov-30 15:21N 21°11' E 110°24'0 0.0
2016-Nov-30 14:09N 21°11' E 110°24'0 0.0
2016-Nov-30 13:33N 21°11' E 110°24'0 0.0
2016-Nov-30 09:33N 21°11' E 110°24'0 0.0
2016-Nov-30 08:30N 21°11' E 110°24'0 0.0
2016-Nov-30 07:21N 21°11' E 110°24'0 0.5
2016-Nov-30 06:33N 21°11' E 110°25'4 4.3
2016-Nov-30 05:32N 21°15' E 110°26'0 0.0
2016-Nov-30 04:29N 21°15' E 110°26'0 0.0
2016-Nov-30 03:32N 21°15' E 110°26'0 0.0
2016-Nov-30 02:32N 21°15' E 110°26'0 0.0
2016-Nov-30 01:32N 21°15' E 110°26'0 0.0
2016-Nov-30 00:32N 21°15' E 110°26'0 0.0
2016-Nov-29 23:32N 21°15' E 110°26'0 0.0
2016-Nov-29 22:26N 21°15' E 110°26'0 0.0
2016-Nov-29 21:32N 21°15' E 110°26'0 0.0
2016-Nov-29 20:32N 21°15' E 110°26'0 0.0
2016-Nov-29 19:29N 21°15' E 110°26'0 0.0
2016-Nov-29 18:32N 21°15' E 110°26'0 0.0
2016-Nov-29 17:32N 21°15' E 110°26'0 0.0
2016-Nov-29 16:29N 21°15' E 110°26'0 0.0
2016-Nov-29 15:29N 21°15' E 110°26'0 0.0
2016-Nov-29 14:32N 21°15' E 110°26'0 0.0
2016-Nov-29 13:29N 21°15' E 110°26'0 0.0
2016-Nov-29 12:29N 21°15' E 110°26'0 0.0
2016-Nov-29 11:29N 21°15' E 110°26'0 0.0
2016-Nov-29 10:32N 21°15' E 110°26'0 0.0
2016-Nov-29 09:26N 21°15' E 110°26'0 0.0
2016-Nov-29 08:29N 21°15' E 110°26'0 0.0
2016-Nov-29 07:32N 21°15' E 110°26'0 0.0
2016-Nov-29 06:32N 21°15' E 110°26'0 0.0
2016-Nov-29 05:32N 21°15' E 110°26'0 0.0
2016-Nov-29 04:32N 21°15' E 110°26'0 0.0
2016-Nov-29 03:32N 21°15' E 110°26'0 0.0
2016-Nov-29 02:26N 21°15' E 110°26'0 0.0
2016-Nov-29 01:32N 21°15' E 110°26'0 0.0
2016-Nov-29 00:29N 21°15' E 110°26'0 0.0
2016-Nov-28 23:32N 21°15' E 110°26'0 0.0
2016-Nov-28 22:23N 21°15' E 110°26'0 0.0
2016-Nov-28 21:32N 21°15' E 110°26'0 0.0
2016-Nov-28 20:20N 21°15' E 110°26'0 0.0
2016-Nov-28 19:20N 21°15' E 110°26'0 0.0
2016-Nov-28 18:32N 21°15' E 110°26'0 0.0
2016-Nov-28 17:32N 21°15' E 110°26'0 0.0
2016-Nov-28 16:32N 21°15' E 110°26'0 0.0
2016-Nov-28 15:20N 21°15' E 110°26'0 0.0
2016-Nov-28 14:14N 21°15' E 110°26'0 0.0
2016-Nov-28 13:32N 21°15' E 110°26'0 0.0
2016-Nov-28 12:32N 21°15' E 110°26'0 0.0
2016-Nov-28 11:32N 21°15' E 110°26'0 0.0
2016-Nov-28 10:32N 21°15' E 110°26'0 0.0
2016-Nov-28 09:26N 21°15' E 110°26'0 0.0
2016-Nov-28 08:32N 21°15' E 110°26'0 0.0
2016-Nov-28 07:32N 21°15' E 110°26'0 0.0
2016-Nov-28 06:32N 21°15' E 110°26'0 0.0
2016-Nov-28 05:26N 21°15' E 110°26'0 0.0
2016-Nov-28 04:32N 21°15' E 110°26'0 0.0
2016-Nov-28 03:26N 21°15' E 110°26'0 0.0
2016-Nov-28 02:26N 21°15' E 110°26'0 0.0
2016-Nov-28 01:32N 21°15' E 110°26'0 0.0
2016-Nov-28 00:32N 21°15' E 110°26'0 0.0
2016-Nov-27 23:29N 21°15' E 110°26'0 0.0
2016-Nov-27 22:20N 21°15' E 110°26'0 0.0
2016-Nov-27 21:26N 21°15' E 110°26'0 0.0
2016-Nov-27 20:32N 21°15' E 110°26'0 0.0
2016-Nov-27 19:32N 21°15' E 110°26'0 0.0
2016-Nov-27 18:32N 21°15' E 110°26'0 0.0
2016-Nov-27 17:32N 21°15' E 110°26'0 0.0
2016-Nov-27 16:32N 21°15' E 110°26'0 0.0
2016-Nov-27 15:26N 21°15' E 110°26'0 0.0
2016-Nov-27 14:08N 21°15' E 110°26'0 0.0
2016-Nov-27 13:29N 21°15' E 110°26'0 0.0
2016-Nov-27 12:32N 21°15' E 110°26'0 0.0
2016-Nov-27 11:32N 21°15' E 110°26'0 0.0
2016-Nov-27 10:26N 21°15' E 110°26'0 0.0
2016-Nov-27 09:26N 21°15' E 110°26'0 0.0
2016-Nov-27 08:32N 21°15' E 110°26'0 0.0
2016-Nov-27 07:32N 21°15' E 110°26'0 0.0
2016-Nov-27 06:32N 21°15' E 110°26'0 0.0
2016-Nov-27 05:32N 21°15' E 110°26'0 0.0
2016-Nov-27 04:32N 21°15' E 110°26'0 0.0
2016-Nov-27 03:29N 21°15' E 110°26'0 0.0
2016-Nov-27 02:32N 21°15' E 110°26'0 0.0
2016-Nov-27 01:14N 21°15' E 110°26'0 0.0
2016-Nov-27 00:20N 21°15' E 110°26'0 0.0
2016-Nov-26 23:32N 21°15' E 110°26'0 0.0
2016-Nov-26 22:32N 21°15' E 110°26'0 0.0
2016-Nov-26 21:32N 21°15' E 110°26'0 0.0
2016-Nov-26 20:32N 21°15' E 110°26'0 0.0
2016-Nov-26 19:29N 21°15' E 110°26'0 0.0
2016-Nov-26 18:29N 21°15' E 110°26'  

Dump ship's entire track history